createdAt,value
2023-01-29T06:14:26.592Z,1.10
2023-01-29T06:19:31.618Z,1.23
2023-01-29T06:24:35.245Z,0.75
2023-01-29T06:29:38.830Z,0.85
2023-01-29T06:34:43.963Z,1.03
2023-01-29T06:39:47.639Z,0.62
2023-01-29T06:44:51.461Z,0.82
2023-01-29T06:49:56.479Z,0.88
2023-01-29T06:55:00.098Z,0.73
2023-01-29T07:00:03.844Z,1.00
2023-01-29T07:05:09.487Z,1.08
2023-01-29T07:10:13.301Z,0.90
2023-01-29T07:15:20.255Z,1.20
2023-01-29T07:20:25.801Z,1.15
2023-01-29T07:25:30.454Z,1.50
2023-01-29T07:30:37.379Z,1.67
2023-01-29T07:35:43.556Z,1.58
2023-01-29T07:40:47.442Z,1.60
2023-01-29T07:45:51.082Z,1.25
2023-01-29T07:50:58.485Z,1.10
2023-01-29T07:56:02.134Z,1.80
2023-01-29T08:01:08.460Z,1.30
2023-01-29T08:06:13.466Z,1.60
2023-01-29T08:11:17.170Z,1.10
2023-01-29T08:16:20.844Z,1.15
2023-01-29T08:21:26.091Z,1.20
2023-01-29T08:26:30.088Z,1.15
2023-01-29T08:31:33.945Z,1.52
2023-01-29T08:36:39.104Z,1.67
2023-01-29T08:41:42.747Z,1.33
2023-01-29T08:46:46.389Z,1.12
2023-01-29T08:51:51.677Z,1.45
2023-01-29T08:56:55.276Z,1.37
2023-01-29T09:01:58.973Z,1.60
2023-01-29T09:07:04.013Z,1.20
2023-01-29T09:12:08.186Z,1.33
2023-01-29T09:17:11.789Z,1.80
2023-01-29T09:22:16.843Z,1.25
2023-01-29T09:27:20.547Z,1.48
2023-01-29T09:32:52.084Z,1.00
2023-01-29T09:37:50.681Z,1.48
2023-01-29T09:42:59.309Z,1.27
2023-01-29T09:48:06.798Z,1.45
2023-01-29T09:53:19.565Z,1.65
2023-01-29T09:58:29.056Z,1.00
2023-01-29T10:03:55.939Z,1.55
2023-01-29T10:09:32.428Z,1.42
2023-01-29T10:14:44.819Z,1.50
2023-01-29T10:20:04.308Z,1.48
2023-01-29T10:25:12.692Z,1.08
2023-01-29T10:30:29.188Z,1.45
2023-01-29T10:35:35.615Z,1.25
2023-01-29T10:40:46.935Z,1.48
2023-01-29T10:46:05.272Z,1.50
2023-01-29T10:51:23.438Z,1.12
2023-01-29T10:56:41.524Z,1.60
2023-01-29T11:01:46.597Z,1.48
2023-01-29T11:06:51.206Z,1.60
2023-01-29T11:11:59.362Z,1.87
2023-01-29T11:17:05.102Z,1.85
2023-01-29T11:22:15.952Z,1.90
2023-01-29T11:27:26.043Z,2.17
2023-01-29T11:32:35.438Z,2.03
2023-01-29T11:37:40.366Z,1.92
2023-01-29T11:42:44.135Z,1.58
2023-01-29T11:47:51.637Z,1.90
2023-01-29T11:52:56.181Z,1.75
2023-01-29T11:58:06.548Z,1.58
2023-01-29T12:03:17.497Z,1.92
2023-01-29T12:08:22.946Z,1.98
2023-01-29T12:13:28.562Z,2.45
2023-01-29T12:18:38.170Z,2.12
2023-01-29T12:23:48.599Z,1.23
2023-01-29T12:28:57.247Z,2.00
2023-01-29T12:34:09.596Z,1.73
2023-01-29T12:39:16.623Z,1.65
2023-01-29T12:44:25.434Z,1.70
2023-01-29T12:49:34.867Z,1.87
2023-01-29T12:54:41.933Z,1.58
2023-01-29T12:59:50.710Z,1.75
2023-01-29T13:05:02.152Z,2.10
2023-01-29T13:10:11.774Z,1.58
2023-01-29T13:15:23.846Z,1.40
2023-01-29T13:20:32.222Z,1.67
2023-01-29T13:25:36.106Z,1.87
2023-01-29T13:30:40.140Z,1.77
2023-01-29T13:35:47.218Z,1.75
2023-01-29T13:40:52.006Z,1.77
2023-01-29T13:45:56.521Z,2.35
2023-01-29T13:56:30.685Z,2.08
2023-01-29T14:02:06.481Z,1.50
2023-01-29T14:07:49.933Z,1.62
2023-01-29T14:12:54.399Z,1.98
2023-01-29T14:23:06.594Z,1.73
2023-01-29T14:28:21.504Z,2.30
2023-01-29T14:33:28.562Z,2.08
2023-01-29T14:38:35.252Z,2.45
2023-01-29T14:43:39.215Z,2.45
2023-01-29T14:48:48.669Z,2.08
2023-01-29T14:54:00.514Z,2.15
2023-01-29T14:59:14.525Z,1.70
2023-01-29T15:04:23.637Z,2.40
2023-01-29T15:09:40.806Z,2.00
2023-01-29T15:14:53.404Z,1.83
2023-01-29T15:19:58.130Z,2.33
2023-01-29T15:25:08.370Z,2.15
2023-01-29T15:30:19.025Z,1.77
2023-01-29T15:35:29.969Z,2.25
2023-01-29T15:40:35.923Z,2.22
2023-01-29T15:45:42.426Z,2.60
2023-01-29T15:50:46.974Z,2.55
2023-01-29T15:55:53.799Z,2.42
2023-01-29T16:01:00.110Z,2.45
2023-01-29T16:06:07.022Z,2.40
2023-01-29T16:11:12.325Z,2.17
2023-01-29T16:16:24.855Z,2.40
2023-01-29T16:21:33.048Z,2.25
2023-01-29T16:26:40.860Z,2.08
2023-01-29T16:31:46.718Z,2.20
2023-01-29T16:36:52.836Z,2.67
2023-01-29T16:42:23.463Z,2.25
2023-01-29T16:47:33.455Z,2.40
2023-01-29T16:52:37.394Z,2.50
2023-01-29T16:57:43.909Z,2.67
2023-01-29T17:02:47.626Z,2.40
2023-01-29T17:07:51.896Z,2.30
2023-01-29T17:13:00.320Z,2.62
2023-01-29T17:18:05.216Z,3.15
2023-01-29T17:23:08.880Z,2.60
2023-01-29T17:28:14.960Z,2.77
2023-01-29T17:33:21.819Z,2.97
2023-01-29T17:38:26.857Z,3.42
2023-01-29T17:43:31.949Z,3.75
2023-01-29T17:48:35.700Z,3.80
2023-01-29T17:53:47.487Z,3.72
2023-01-29T17:58:52.723Z,3.08
2023-01-29T18:03:56.648Z,3.80
2023-01-29T18:09:00.325Z,4.60
2023-01-29T18:14:13.625Z,4.25
2023-01-29T18:19:22.074Z,3.58
2023-01-29T18:24:26.676Z,3.37
2023-01-29T18:29:31.854Z,3.20
2023-01-29T18:34:35.491Z,3.30
2023-01-29T18:39:39.199Z,3.07
2023-01-29T18:44:44.237Z,3.20
2023-01-29T18:49:47.992Z,2.95
2023-01-29T18:54:51.931Z,3.15
2023-01-29T18:59:56.949Z,3.17
2023-01-29T19:05:00.689Z,3.37
2023-01-29T19:10:06.792Z,2.97
2023-01-29T19:15:13.180Z,3.00
2023-01-29T19:20:17.092Z,3.10
2023-01-29T19:25:21.035Z,3.37
2023-01-29T19:35:29.809Z,2.78
2023-01-29T19:40:33.513Z,3.63
2023-01-29T19:45:50.395Z,3.33
2023-01-29T19:50:55.339Z,2.60
2023-01-29T19:56:00.221Z,2.97
2023-01-29T20:01:07.330Z,2.83
2023-01-29T20:06:11.373Z,3.35
2023-01-29T20:11:15.598Z,2.95
2023-01-29T20:16:21.369Z,2.85
2023-01-29T20:21:25.382Z,3.40
2023-01-29T20:26:29.488Z,1.95
2023-01-29T20:31:34.997Z,2.53
2023-01-29T20:36:38.698Z,3.20
2023-01-29T20:41:42.592Z,3.93
2023-01-29T20:46:47.711Z,3.22
2023-01-29T20:51:51.611Z,2.67
2023-01-29T20:56:55.544Z,3.25
2023-01-29T21:02:01.701Z,3.50
2023-01-29T21:07:05.642Z,2.92
2023-01-29T21:12:09.373Z,1.92
2023-01-29T21:17:14.637Z,2.80
2023-01-29T21:22:18.602Z,2.25
2023-01-29T21:27:22.223Z,2.30
2023-01-29T21:32:28.109Z,2.10
2023-01-29T21:37:35.162Z,2.37
2023-01-29T21:42:56.432Z,2.90
2023-01-29T21:48:01.597Z,2.58
2023-01-29T21:53:05.247Z,2.50
2023-01-29T21:58:09.208Z,2.50
2023-01-29T22:03:14.252Z,2.53
2023-01-29T22:08:18.614Z,2.30
2023-01-29T22:18:27.303Z,2.12
2023-01-29T22:23:31.716Z,2.12
2023-01-29T22:33:40.505Z,1.90
2023-01-29T22:38:44.214Z,2.47
2023-01-29T22:43:47.815Z,2.13
2023-01-29T22:48:52.967Z,2.50
2023-01-29T22:53:57.840Z,1.80
2023-01-29T22:59:02.491Z,2.60
2023-01-29T23:04:07.551Z,2.65
2023-01-29T23:09:11.197Z,2.03
2023-01-29T23:14:14.971Z,2.50
2023-01-29T23:19:20.184Z,2.00
2023-01-29T23:24:24.034Z,2.30
2023-01-29T23:29:28.068Z,2.17
